Time;durP1;ratioP1;P1;durP2;ratioP2;P2;SDS_P1;SDS_P2;PMS_P1;PMS_P2;Temp;Humidity;BMP_temperature;BMP_pressure;BME280_temperature;BME280_humidity;BME280_pressure;Samples;Min_cycle;Max_cycle;Signal;HPM_P1;HPM_P2
2021/12/18 00:02:16;;;;;;;3.78;1.55;;;-0.20;98.70;;;-0.70;100.00;99916.47;4999597;28;129572;-77
2021/12/18 00:04:46;;;;;;;3.80;1.50;;;-0.20;99.00;;;-0.84;100.00;99916.66;4963746;28;119646;-77
2021/12/18 00:07:16;;;;;;;2.97;1.60;;;-0.20;93.70;;;-0.79;100.00;99922.13;4964688;28;119588;-77
2021/12/18 00:09:46;;;;;;;3.10;1.60;;;-0.20;91.70;;;-0.76;100.00;99923.53;4965450;28;129804;-77
2021/12/18 00:12:15;;;;;;;3.33;1.70;;;-0.10;90.90;;;-0.83;100.00;99923.59;4964265;28;129547;-76
2021/12/18 00:14:44;;;;;;;2.22;1.17;;;-0.10;86.80;;;-0.80;100.00;99923.16;4957154;28;120137;-77
2021/12/18 00:17:12;;;;;;;5.65;1.90;;;-0.10;84.00;;;-0.81;100.00;99926.88;4966306;28;118808;-76
2021/12/18 00:19:41;;;;;;;3.75;1.38;;;0.00;73.70;;;-0.70;100.00;99925.28;4960671;28;129620;-77
2021/12/18 00:22:11;;;;;;;2.83;1.50;;;0.00;72.40;;;-0.70;100.00;99933.28;4960079;28;129966;-77
2021/12/18 00:24:45;;;;;;;4.70;2.05;;;0.10;68.90;;;-0.62;100.00;99918.81;4964219;28;119257;-77
2021/12/18 00:27:14;;;;;;;3.50;1.70;;;0.10;67.70;;;-0.68;100.00;99919.72;4981999;28;118518;-77
2021/12/18 00:29:43;;;;;;;3.20;1.75;;;0.10;64.30;;;-0.54;100.00;99910.50;4964780;28;129705;-76
2021/12/18 00:32:12;;;;;;;3.53;1.70;;;0.10;67.30;;;-0.45;100.00;99922.47;4965150;28;130715;-76
2021/12/18 00:34:41;;;;;;;3.97;1.70;;;0.10;68.50;;;-0.40;100.00;99916.44;4963062;28;121594;-76
2021/12/18 00:37:11;;;;;;;2.53;1.50;;;0.10;67.70;;;-0.40;99.65;99922.56;4966458;28;121228;-76
2021/12/18 00:39:49;;;;;;;4.00;2.10;;;0.10;68.70;;;-0.38;100.00;99923.16;4981835;28;129007;-76
2021/12/18 00:42:35;;;;;;;3.83;1.80;;;0.10;71.50;;;-0.39;100.00;99924.22;4966957;28;129815;-76
2021/12/18 00:45:06;;;;;;;3.47;1.52;;;0.20;74.30;;;-0.28;100.00;99919.13;4964006;28;119930;-76
2021/12/18 00:47:35;;;;;;;2.92;1.70;;;0.10;77.30;;;-0.46;100.00;99928.81;4982074;28;116870;-75
2021/12/18 00:50:06;;;;;;;4.93;1.83;;;0.10;81.60;;;-0.43;100.00;99933.69;4963000;28;130009;-76
2021/12/18 00:52:36;;;;;;;3.08;1.70;;;0.10;85.50;;;-0.55;100.00;99927.53;4949597;28;129896;-76
2021/12/18 00:55:06;;;;;;;2.97;1.40;;;0.10;89.20;;;-0.54;100.00;99931.81;4964031;28;119624;-76
2021/12/18 00:57:36;;;;;;;4.45;2.38;;;0.00;90.70;;;-0.29;100.00;99922.84;4963267;28;119415;-76
2021/12/18 01:00:09;;;;;;;2.90;1.73;;;0.00;91.90;;;-0.45;100.00;99919.78;4964639;28;130624;-76
2021/12/18 01:02:43;;;;;;;3.60;2.00;;;0.00;94.60;;;-0.48;100.00;99922.09;4963694;28;131146;-76
2021/12/18 01:05:12;;;;;;;4.07;1.92;;;0.00;97.50;;;-0.53;100.00;99922.78;4963864;28;119652;-76
2021/12/18 01:07:42;;;;;;;4.15;2.17;;;-0.10;99.80;;;-0.74;100.00;99916.91;4995730;28;119969;-75
2021/12/18 01:10:27;;;;;;;4.38;1.85;;;-0.10;99.90;;;-0.56;100.00;99923.25;4998133;28;129952;-75
2021/12/18 01:12:58;;;;;;;4.38;2.20;;;-0.10;99.90;;;-0.50;100.00;99932.97;4992947;28;128572;-76
2021/12/18 01:15:31;;;;;;;4.35;2.05;;;-0.10;99.90;;;-0.34;100.00;99930.69;4955974;28;119923;-76
2021/12/18 01:23:34;;;;;;;3.78;2.10;;;0.00;99.90;;;-0.25;100.00;99918.66;4956124;28;129811;-77
2021/12/18 01:26:04;;;;;;;3.17;2.05;;;0.00;99.90;;;-0.19;100.00;99917.75;4962952;28;122241;-77
2021/12/18 01:28:34;;;;;;;4.30;2.10;;;0.00;99.90;;;-0.39;100.00;99908.22;4962802;28;121934;-77
2021/12/18 01:31:04;;;;;;;6.78;2.38;;;-0.10;99.90;;;-0.12;100.00;99915.78;4963556;28;130140;-77
2021/12/18 01:33:34;;;;;;;4.03;2.30;;;0.00;99.90;;;0.00;100.00;99915.81;4948602;28;128514;-76
2021/12/18 01:36:03;;;;;;;4.88;2.50;;;-0.10;99.90;;;0.07;100.00;99915.69;4965541;28;119499;-76
2021/12/18 01:38:35;;;;;;;3.60;1.98;;;-0.10;99.90;;;0.06;100.00;99920.19;4986647;28;119873;-77
2021/12/18 01:41:05;;;;;;;6.45;3.08;;;-0.10;99.90;;;0.10;100.00;99923.22;4978463;28;129783;-77
2021/12/18 01:52:16;;;;;;;4.28;1.70;;;0.00;99.90;;;-0.01;100.00;99928.31;4961827;28;130095;-77
2021/12/18 01:54:47;;;;;;;4.47;2.17;;;0.00;99.90;;;-0.07;100.00;99926.56;4962833;28;129737;-77
2021/12/18 01:57:16;;;;;;;3.67;1.88;;;0.00;99.90;;;-0.09;100.00;99923.34;4962811;28;119568;-77
2021/12/18 01:59:48;;;;;;;5.65;2.20;;;0.00;99.90;;;-0.13;100.00;99921.34;4980507;28;118459;-77
2021/12/18 02:02:16;;;;;;;4.07;2.10;;;0.00;99.90;;;-0.04;100.00;99920.78;4962795;28;130602;-77
2021/12/18 02:04:46;;;;;;;4.30;2.20;;;0.10;99.90;;;-0.08;100.00;99919.63;4964821;28;128700;-76
2021/12/18 02:07:15;;;;;;;5.15;2.70;;;0.10;99.90;;;-0.29;100.00;99912.97;4963310;28;120119;-77
2021/12/18 02:10:00;;;;;;;5.32;2.40;;;0.00;99.90;;;-0.23;100.00;99903.25;4963907;28;119246;-76
2021/12/18 02:12:37;;;;;;;4.97;2.20;;;0.10;99.90;;;-0.03;100.00;99906.41;4962422;28;129531;-77
2021/12/18 02:20:45;;;;;;;4.35;2.58;;;0.10;99.90;;;0.42;100.00;99905.00;4991206;28;121467;-77
2021/12/18 02:23:14;;;;;;;4.40;2.20;;;0.20;99.90;;;0.38;100.00;99911.03;4963625;28;130312;-77
2021/12/18 02:25:45;;;;;;;5.70;3.00;;;0.10;99.90;;;0.33;100.00;99907.19;4959777;28;130289;-77
2021/12/18 02:28:19;;;;;;;4.80;2.40;;;0.10;99.90;;;0.24;100.00;99911.25;4960555;28;119320;-76
2021/12/18 02:30:58;;;;;;;8.07;2.75;;;0.10;99.90;;;0.23;100.00;99908.81;4956870;28;119808;-77
2021/12/18 02:33:28;;;;;;;5.53;2.58;;;0.10;99.90;;;0.33;100.00;99912.53;4962484;28;129884;-77
2021/12/18 02:36:01;;;;;;;5.18;2.72;;;0.10;99.90;;;0.12;100.00;99911.25;4957619;28;130347;-78
2021/12/18 02:38:57;;;;;;;5.82;2.67;;;0.10;99.90;;;-0.16;100.00;99911.13;4959605;28;120041;-77
2021/12/18 02:41:33;;;;;;;4.68;2.60;;;0.10;99.90;;;-0.17;100.00;99905.00;4961909;28;118608;-75
2021/12/18 02:44:03;;;;;;;4.70;2.67;;;0.10;99.90;;;0.05;100.00;99909.75;4956429;28;130299;-76
2021/12/18 02:46:32;;;;;;;4.90;2.60;;;0.10;99.90;;;0.01;100.00;99912.06;4961690;28;129815;-77
2021/12/18 02:49:08;;;;;;;4.40;2.42;;;0.10;99.90;;;0.11;100.00;99917.66;4986517;28;119794;-78
2021/12/18 02:51:39;;;;;;;4.55;2.83;;;0.20;99.90;;;-0.13;100.00;99927.50;4967225;28;121071;-77
2021/12/18 02:54:11;;;;;;;4.20;2.25;;;0.10;99.90;;;-0.32;100.00;99923.31;4983911;28;129090;-77
2021/12/18 02:56:40;;;;;;;4.55;2.25;;;0.20;99.90;;;-0.23;100.00;99911.25;4990294;28;129329;-77
2021/12/18 02:59:09;;;;;;;4.25;2.40;;;0.20;99.90;;;-0.41;100.00;99926.28;4984042;28;119296;-77
2021/12/18 03:01:41;;;;;;;3.97;2.00;;;0.20;99.90;;;-0.38;100.00;99925.81;4967313;28;119314;-77
2021/12/18 03:04:17;;;;;;;5.30;2.60;;;0.20;99.90;;;-0.29;100.00;99917.50;4957801;28;130179;-77
2021/12/18 03:06:50;;;;;;;3.92;2.35;;;0.20;99.90;;;-0.03;100.00;99914.41;4967733;28;129887;-77
2021/12/18 03:26:13;;;;;;;5.05;3.05;;;0.30;99.90;;;0.46;100.00;99891.97;4959972;28;130115;-78
2021/12/18 03:28:44;;;;;;;4.35;2.40;;;0.30;99.90;;;0.42;100.00;99874.78;4964761;28;129279;-78
2021/12/18 03:31:14;;;;;;;3.85;2.50;;;0.20;99.90;;;0.41;100.00;99878.53;4966983;28;118595;-77
2021/12/18 03:33:47;;;;;;;4.32;2.38;;;0.20;99.90;;;0.30;100.00;99880.16;4965400;28;118994;-77
2021/12/18 03:36:16;;;;;;;3.53;2.35;;;0.20;99.90;;;0.35;100.00;99886.41;4965247;28;129587;-79
2021/12/18 03:38:47;;;;;;;5.10;2.70;;;0.20;99.90;;;0.27;100.00;99888.63;4975986;28;129822;-78
2021/12/18 03:41:15;;;;;;;5.07;2.42;;;0.20;99.90;;;0.28;100.00;99891.06;4956484;28;119912;-78
2021/12/18 03:43:44;;;;;;;3.42;2.10;;;0.10;99.90;;;0.31;100.00;99887.94;4965506;28;119064;-77
2021/12/18 03:46:12;;;;;;;2.95;2.00;;;0.10;99.90;;;0.33;100.00;99899.19;4966842;28;128839;-77
2021/12/18 03:48:41;;;;;;;4.72;2.33;;;0.10;99.90;;;0.34;100.00;99902.66;4964995;28;131244;-77
2021/12/18 03:51:10;;;;;;;3.47;2.13;;;0.10;99.90;;;-0.03;100.00;99906.41;4975958;28;118669;-77
2021/12/18 03:53:41;;;;;;;6.50;2.38;;;0.20;99.90;;;0.19;100.00;99903.16;4965435;28;118124;-78
2021/12/18 03:56:11;;;;;;;6.05;2.53;;;0.20;99.90;;;0.33;100.00;99909.88;4964542;28;129825;-77
2021/12/18 03:58:40;;;;;;;3.90;2.05;;;0.20;99.90;;;0.33;100.00;99914.41;4956484;28;129528;-78
2021/12/18 04:01:22;;;;;;;3.70;2.10;;;0.20;99.90;;;0.37;100.00;99915.53;4964439;28;121073;-78
2021/12/18 04:03:51;;;;;;;4.78;2.00;;;0.20;99.90;;;0.44;100.00;99926.13;4967599;28;121534;-77
2021/12/18 04:06:20;;;;;;;3.92;2.30;;;0.30;99.90;;;0.11;100.00;99932.84;4966454;28;129580;-77
2021/12/18 04:08:57;;;;;;;3.72;2.35;;;0.20;99.90;;;0.21;100.00;99933.09;4983166;28;128834;-77
2021/12/18 04:11:27;;;;;;;3.88;2.30;;;0.20;99.90;;;0.16;100.00;99924.97;4982913;28;118875;-76
2021/12/18 04:13:56;;;;;;;3.83;1.98;;;0.20;99.90;;;0.31;100.00;99928.00;4964804;28;119346;-77
2021/12/18 04:16:30;;;;;;;2.65;1.65;;;0.30;99.90;;;0.25;100.00;99926.25;4966598;28;129945;-77
2021/12/18 04:18:59;;;;;;;4.28;2.10;;;0.30;99.90;;;0.38;100.00;99924.38;4964941;28;129838;-77
2021/12/18 04:21:28;;;;;;;4.30;2.03;;;0.30;99.90;;;0.40;100.00;99920.41;4965538;28;118885;-77
2021/12/18 04:23:56;;;;;;;3.83;2.20;;;0.30;99.90;;;0.40;100.00;99915.06;4965061;28;119739;-77
2021/12/18 04:26:26;;;;;;;4.47;1.98;;;0.30;99.90;;;0.23;100.00;99904.28;4964399;28;129574;-77
2021/12/18 04:28:55;;;;;;;5.40;3.08;;;0.30;99.90;;;0.20;100.00;99891.41;4965479;28;128253;-77
2021/12/18 04:31:35;;;;;;;4.90;2.50;;;0.20;99.90;;;0.10;100.00;99884.00;4966400;28;118844;-77
2021/12/18 04:34:04;;;;;;;5.28;2.80;;;0.20;99.90;;;0.21;100.00;99887.69;4964751;28;119475;-77
2021/12/18 04:36:34;;;;;;;4.32;2.20;;;0.20;99.90;;;0.26;100.00;99882.47;4955870;28;129887;-77
2021/12/18 04:39:04;;;;;;;4.95;2.60;;;0.30;99.90;;;-0.02;100.00;99883.19;4963898;28;129664;-77
2021/12/18 04:41:41;;;;;;;8.60;3.72;;;0.20;99.90;;;0.06;100.00;99882.03;4964290;28;119543;-77
2021/12/18 04:44:10;;;;;;;;;;;0.20;99.90;;;0.05;100.00;99881.22;4968039;28;118678;-77
2021/12/18 04:46:38;;;;;;;5.53;2.13;;;0.20;99.90;;;0.23;100.00;99871.47;4965653;28;130454;-78
2021/12/18 04:49:08;;;;;;;5.63;2.65;;;0.20;99.90;;;0.31;100.00;99882.59;4964236;28;129728;-78
2021/12/18 04:51:36;;;;;;;4.60;2.35;;;0.20;99.90;;;0.34;100.00;99889.31;4962856;28;121814;-76
2021/12/18 04:54:11;;;;;;;3.95;2.53;;;0.20;99.90;;;0.28;100.00;99895.59;4964282;28;121793;-76
2021/12/18 04:56:41;;;;;;;6.30;3.13;;;0.20;99.90;;;0.38;100.00;99895.00;4963966;28;129716;-76
2021/12/18 04:59:09;;;;;;;6.43;2.47;;;0.20;99.90;;;0.32;100.00;99894.88;4968527;28;128741;-77
2021/12/18 05:01:40;;;;;;;6.40;3.58;;;0.20;99.90;;;0.38;100.00;99885.13;4964104;28;118132;-77
2021/12/18 05:04:11;;;;;;;8.45;4.82;;;0.20;99.90;;;0.39;100.00;99891.28;4964289;28;119300;-77
2021/12/18 05:06:44;;;;;;;3.55;1.92;;;0.20;99.90;;;0.34;100.00;99884.81;4963612;28;130144;-77
2021/12/18 05:09:17;;;;;;;5.20;2.63;;;0.20;99.90;;;0.38;100.00;99895.00;4966932;28;129603;-77
2021/12/18 05:11:48;;;;;;;7.85;3.17;;;0.20;99.90;;;0.07;100.00;99883.66;4959648;28;120204;-76
2021/12/18 05:14:17;;;;;;;4.95;2.63;;;0.20;99.90;;;-0.18;100.00;99895.38;4963690;28;119133;-76
2021/12/18 05:16:47;;;;;;;5.25;2.65;;;0.10;99.90;;;-0.16;100.00;99898.59;4955556;28;129692;-77
2021/12/18 05:19:16;;;;;;;7.40;3.35;;;0.20;99.90;;;-0.11;100.00;99898.75;4963299;28;130286;-77
2021/12/18 05:21:45;;;;;;;4.05;2.40;;;0.20;99.90;;;-0.19;100.00;99891.06;4963848;28;119494;-77
2021/12/18 05:24:23;;;;;;;5.03;2.38;;;0.20;99.90;;;-0.15;100.00;99897.56;4965498;28;119461;-77
2021/12/18 05:26:53;;;;;;;4.18;2.35;;;0.20;99.30;;;-0.11;100.00;99885.41;4958732;28;129993;-76
2021/12/18 05:29:22;;;;;;;5.60;2.20;;;0.20;97.70;;;-0.42;100.00;99879.34;4978873;28;129484;-76
2021/12/18 05:31:52;;;;;;;4.93;2.53;;;0.20;94.80;;;-0.34;100.00;99877.34;4956284;28;119696;-77
2021/12/18 05:34:24;;;;;;;4.35;2.55;;;0.20;94.90;;;-0.37;100.00;99890.13;4957949;28;119256;-77
2021/12/18 05:39:41;;;;;;;4.75;2.30;;;0.20;93.00;;;0.05;100.00;99880.38;4981503;28;128809;-78
2021/12/18 05:42:11;;;;;;;5.03;2.33;;;0.20;92.30;;;0.03;100.00;99882.50;4964295;28;121989;-78
2021/12/18 05:44:39;;;;;;;3.95;2.10;;;0.20;91.90;;;0.01;100.00;99884.59;4963635;28;121313;-78
2021/12/18 05:47:08;;;;;;;4.25;2.53;;;0.20;91.90;;;-0.17;100.00;99894.34;4957436;28;129745;-77
2021/12/18 05:49:38;;;;;;;7.15;3.22;;;0.20;92.40;;;-0.11;100.00;99882.75;4955841;28;129818;-77
2021/12/18 05:52:07;;;;;;;7.70;3.40;;;0.20;92.90;;;-0.01;100.00;99877.63;4962631;28;119724;-77
2021/12/18 05:54:36;;;;;;;6.22;2.78;;;0.20;93.40;;;0.24;100.00;99879.22;4947393;28;119041;-77
2021/12/18 05:57:06;;;;;;;5.55;3.00;;;0.20;93.90;;;0.37;100.00;99872.03;4987063;28;130221;-77
2021/12/18 05:59:39;;;;;;;5.03;2.20;;;0.20;94.10;;;0.53;100.00;99887.28;4980723;28;129468;-76
2021/12/18 06:02:08;;;;;;;3.25;1.80;;;0.30;94.40;;;0.56;99.96;99868.13;4962301;28;119669;-76
2021/12/18 06:04:37;;;;;;;4.88;2.40;;;0.30;94.60;;;0.60;100.00;99871.16;4962672;28;120733;-76
2021/12/18 06:07:17;;;;;;;7.00;4.13;;;0.30;94.70;;;0.67;99.56;99877.16;4961683;28;129933;-76
2021/12/18 06:09:45;;;;;;;6.55;2.40;;;0.30;95.10;;;0.65;99.74;99863.25;4964933;28;128861;-76
2021/12/18 06:12:14;;;;;;;5.72;2.33;;;0.30;95.50;;;0.57;99.95;99864.41;4981390;28;118878;-75
2021/12/18 06:14:44;;;;;;;5.75;2.85;;;0.30;96.50;;;0.54;100.00;99867.56;4993591;28;121290;-75
2021/12/18 06:17:12;;;;;;;5.72;3.15;;;0.30;97.60;;;0.51;100.00;99860.84;4989422;28;129675;-75
2021/12/18 06:19:41;;;;;;;6.32;3.08;;;0.20;98.20;;;0.46;100.00;99859.94;4964326;28;128483;-75
2021/12/18 06:22:09;;;;;;;6.78;3.38;;;0.20;99.20;;;0.37;100.00;99861.34;4977480;28;119175;-75
2021/12/18 06:24:38;;;;;;;6.05;2.80;;;0.20;99.90;;;0.33;100.00;99866.34;4966049;28;119412;-76
2021/12/18 06:27:07;;;;;;;4.38;1.77;;;0.20;99.90;;;0.32;100.00;99865.50;4965676;28;130419;-76
2021/12/18 06:29:38;;;;;;;4.82;1.70;;;0.10;99.90;;;0.45;100.00;99863.63;4965877;28;129577;-78
2021/12/18 06:32:09;;;;;;;3.67;1.67;;;0.10;99.90;;;0.41;100.00;99865.19;4965382;28;121741;-79
2021/12/18 06:34:37;;;;;;;3.88;1.70;;;0.10;99.90;;;0.43;100.00;99855.06;4967144;28;121148;-79
2021/12/18 06:37:06;;;;;;;4.40;1.90;;;0.10;99.90;;;0.42;100.00;99853.44;4958518;28;129913;-79
2021/12/18 06:39:34;;;;;;;4.20;1.90;;;0.10;99.90;;;0.43;100.00;99863.06;4989161;28;128050;-79
2021/12/18 06:42:20;;;;;;;4.07;2.00;;;0.10;99.90;;;0.40;100.00;99852.84;4966843;28;119398;-79
2021/12/18 06:44:49;;;;;;;4.85;2.00;;;0.20;99.90;;;0.40;100.00;99851.00;4964902;28;119359;-79
2021/12/18 06:47:20;;;;;;;3.97;1.52;;;0.10;99.90;;;0.39;100.00;99845.88;4959479;28;128579;-78
2021/12/18 06:49:51;;;;;;;6.05;1.80;;;0.10;99.90;;;0.32;100.00;99841.50;4964446;28;129848;-79
2021/12/18 06:52:21;;;;;;;15.07;8.52;;;0.10;99.90;;;0.37;100.00;99845.31;4980586;28;118800;-79
2021/12/18 06:54:50;;;;;;;25.15;14.10;;;0.10;99.90;;;0.46;100.00;99843.91;4956443;28;119439;-79
2021/12/18 06:57:22;;;;;;;23.55;13.40;;;0.20;99.90;;;0.56;100.00;99837.94;4962805;28;129863;-79
2021/12/18 07:00:01;;;;;;;12.82;6.68;;;0.20;99.90;;;0.64;100.00;99849.09;4979472;28;129671;-79
2021/12/18 07:02:31;;;;;;;7.70;4.65;;;0.30;99.90;;;0.76;100.00;99848.22;4963021;28;119725;-79
2021/12/18 07:05:01;;;;;;;12.48;5.95;;;0.30;99.90;;;0.80;100.00;99846.72;4957386;28;119507;-80
2021/12/18 07:07:30;;;;;;;8.70;4.25;;;0.30;99.90;;;0.92;100.00;99847.47;4965825;28;130025;-80
2021/12/18 07:09:59;;;;;;;10.40;5.38;;;0.40;99.90;;;0.86;100.00;99848.44;4964779;28;130226;-80
2021/12/18 07:12:28;;;;;;;13.32;5.85;;;0.40;99.90;;;0.95;100.00;99830.13;4966257;28;120298;-79
2021/12/18 07:14:56;;;;;;;13.88;5.80;;;0.40;99.90;;;0.95;100.00;99841.66;4965301;28;119480;-79
2021/12/18 07:17:25;;;;;;;11.23;7.20;;;0.50;99.90;;;0.99;100.00;99834.75;4983308;28;129193;-78
2021/12/18 07:19:55;;;;;;;10.48;7.35;;;0.50;99.90;;;1.08;100.00;99840.53;4966975;28;129694;-79
2021/12/18 07:22:23;;;;;;;11.07;6.43;;;0.50;99.90;;;1.13;100.00;99831.81;4959153;28;122079;-79
2021/12/18 07:24:52;;;;;;;10.25;6.05;;;0.60;99.90;;;1.13;100.00;99831.81;4959388;28;121525;-79
2021/12/18 07:27:21;;;;;;;11.05;6.53;;;0.60;99.90;;;1.14;100.00;99828.06;4966707;28;129850;-80
2021/12/18 07:29:50;;;;;;;12.13;6.32;;;0.60;99.90;;;1.23;100.00;99822.09;4965342;28;129978;-79
2021/12/18 07:32:18;;;;;;;14.15;6.05;;;0.60;99.90;;;1.21;100.00;99824.19;4964769;28;120156;-79
2021/12/18 07:34:47;;;;;;;14.38;6.97;;;0.60;99.90;;;1.27;100.00;99821.59;4940723;28;119026;-77
2021/12/18 07:37:17;;;;;;;13.65;5.72;;;0.70;99.90;;;1.25;100.00;99819.97;4961137;28;129847;-74
2021/12/18 07:39:46;;;;;;;10.90;6.20;;;0.70;99.90;;;1.35;100.00;99822.00;4964562;28;129753;-82
2021/12/18 07:42:15;;;;;;;9.18;5.95;;;0.80;99.90;;;1.28;100.00;99813.34;4981309;28;119342;-83
2021/12/18 07:44:43;;;;;;;10.10;5.78;;;0.70;99.90;;;1.30;100.00;99813.91;4973116;28;118376;-83
2021/12/18 07:47:12;;;;;;;10.95;6.55;;;0.70;99.90;;;1.27;100.00;99808.25;4953940;28;129761;-82
2021/12/18 07:49:41;;;;;;;10.57;6.35;;;0.70;99.90;;;1.34;100.00;99811.56;4967399;28;128808;-80
2021/12/18 07:52:10;;;;;;;9.63;6.30;;;0.70;99.90;;;1.28;100.00;99812.53;4960190;28;120098;-79
2021/12/18 07:54:40;;;;;;;11.27;5.35;;;0.70;99.90;;;1.20;100.00;99813.72;4969751;28;119571;-79
2021/12/18 07:57:10;;;;;;;13.10;5.82;;;0.70;99.90;;;1.25;100.00;99811.16;4966297;28;130060;-79
2021/12/18 07:59:39;;;;;;;8.50;4.50;;;0.80;99.90;;;1.17;100.00;99816.88;4965348;28;129650;-78
2021/12/18 08:02:08;;;;;;;8.10;5.05;;;0.70;99.90;;;1.19;100.00;99809.44;4961159;28;118249;-80
2021/12/18 08:04:36;;;;;;;10.40;5.68;;;0.70;99.90;;;1.26;100.00;99810.09;4966515;28;119148;-80
2021/12/18 08:07:05;;;;;;;8.63;5.80;;;0.80;99.90;;;1.28;100.00;99808.00;4967147;28;129927;-78
2021/12/18 08:09:34;;;;;;;8.77;4.75;;;0.80;99.90;;;1.39;100.00;99804.44;4966051;28;128758;-79
2021/12/18 08:12:05;;;;;;;10.68;4.65;;;0.90;99.90;;;1.47;100.00;99794.38;4963266;28;122424;-78
2021/12/18 08:14:34;;;;;;;9.25;4.45;;;0.80;99.90;;;1.47;100.00;99791.72;4964794;28;121630;-78
2021/12/18 08:17:03;;;;;;;9.55;5.65;;;0.90;99.90;;;1.61;100.00;99795.66;4956615;28;130112;-78
2021/12/18 08:19:38;;;;;;;13.40;7.32;;;0.90;99.90;;;1.62;100.00;99781.22;4965645;28;129758;-77
2021/12/18 08:22:07;;;;;;;13.48;7.35;;;1.00;99.90;;;1.63;100.00;99787.41;4965739;28;118829;-76
2021/12/18 08:24:35;;;;;;;7.85;4.00;;;1.00;99.90;;;1.67;100.00;99789.34;4998450;28;118865;-76
2021/12/18 08:27:06;;;;;;;8.48;4.45;;;1.00;99.90;;;1.57;100.00;99792.69;4964511;28;130019;-75
2021/12/18 08:29:35;;;;;;;5.57;3.50;;;1.00;99.90;;;1.71;100.00;99789.66;4949606;28;130193;-74
2021/12/18 08:32:05;;;;;;;9.68;3.50;;;1.00;99.90;;;1.77;99.72;99784.13;4963533;28;120161;-74
2021/12/18 08:34:36;;;;;;;5.57;3.53;;;1.10;99.90;;;1.84;99.50;99777.78;4964184;28;118374;-74
2021/12/18 08:37:06;;;;;;;7.78;3.60;;;1.00;99.90;;;2.26;98.65;99774.56;4955221;28;130430;-73
2021/12/18 08:39:35;;;;;;;5.85;3.20;;;1.30;99.90;;;2.41;96.98;99766.72;4958518;28;130793;-74
2021/12/18 08:42:06;;;;;;;6.80;3.33;;;1.40;99.90;;;2.19;97.13;99764.06;4954889;28;118525;-75
2021/12/18 08:44:36;;;;;;;7.57;4.72;;;1.20;99.90;;;2.06;97.00;99767.91;4978073;28;119412;-73
2021/12/18 08:47:05;;;;;;;8.27;4.38;;;1.20;99.90;;;2.08;97.78;99768.47;4958616;28;129781;-73
2021/12/18 08:49:35;;;;;;;7.82;3.72;;;1.20;99.90;;;2.03;97.69;99762.25;4960401;28;129471;-73
2021/12/18 08:52:05;;;;;;;7.90;3.70;;;1.10;99.90;;;1.85;98.41;99752.66;4951608;28;119823;-73
2021/12/18 08:54:34;;;;;;;7.03;3.83;;;1.10;99.90;;;1.91;98.76;99743.63;4955716;28;120761;-74
2021/12/18 08:57:03;;;;;;;6.97;4.03;;;1.10;99.90;;;1.80;99.11;99750.72;4961701;28;130552;-74
2021/12/18 08:59:33;;;;;;;12.32;6.68;;;1.10;99.90;;;1.70;99.02;99746.03;4993696;28;129105;-74
2021/12/18 09:02:02;;;;;;;14.18;6.72;;;1.10;99.90;;;1.75;99.42;99743.41;4950100;28;121936;-74
2021/12/18 09:04:31;;;;;;;7.18;3.78;;;1.10;99.90;;;1.63;99.84;99734.69;4958191;28;121995;-74
2021/12/18 09:07:00;;;;;;;10.35;6.47;;;1.10;99.90;;;1.91;99.53;99736.41;4950167;28;128880;-74
2021/12/18 09:09:28;;;;;;;15.20;9.93;;;1.20;99.90;;;1.80;99.36;99732.78;4976706;28;130707;-74
2021/12/18 09:11:57;;;;;;;9.68;4.80;;;1.20;99.90;;;1.59;99.79;99728.19;4951945;28;120331;-74
2021/12/18 09:14:26;;;;;;;12.60;7.80;;;1.10;99.90;;;1.52;100.00;99716.88;4955900;28;119596;-74
2021/12/18 09:16:56;;;;;;;8.07;3.92;;;1.10;99.90;;;1.43;100.00;99713.81;4954697;28;130008;-74
2021/12/18 09:19:25;;;;;;;7.93;3.80;;;1.00;99.90;;;1.46;100.00;99712.53;4993134;28;129873;-73
2021/12/18 09:21:55;;;;;;;7.93;3.58;;;1.00;99.90;;;1.44;100.00;99700.19;4996083;28;120617;-74
2021/12/18 09:24:24;;;;;;;6.45;3.15;;;1.00;99.90;;;1.47;100.00;99704.25;4963919;28;119795;-74
2021/12/18 09:26:52;;;;;;;6.30;3.40;;;1.00;99.90;;;1.43;100.00;99706.63;4996067;28;130640;-75
2021/12/18 09:29:21;;;;;;;7.65;3.50;;;1.10;99.90;;;1.29;100.00;99699.97;4963740;28;129806;-74
2021/12/18 09:31:50;;;;;;;7.93;3.63;;;1.00;99.90;;;1.29;100.00;99699.16;4949625;28;118875;-74
2021/12/18 09:34:20;;;;;;;6.05;3.72;;;1.00;99.90;;;1.28;100.00;99701.03;4998290;28;119452;-77
2021/12/18 09:36:50;;;;;;;7.03;3.38;;;1.00;99.90;;;1.20;100.00;99702.25;4998945;28;128784;-76
2021/12/18 09:39:19;;;;;;;7.68;3.97;;;1.00;99.90;;;1.31;100.00;99703.22;4994819;28;129737;-74
2021/12/18 09:41:49;;;;;;;7.15;3.40;;;1.00;99.90;;;1.31;100.00;99687.19;4962948;28;119663;-75
2021/12/18 09:44:23;;;;;;;6.53;2.63;;;1.00;99.90;;;1.22;100.00;99696.66;4983397;28;118767;-76
2021/12/18 09:46:52;;;;;;;6.35;3.13;;;1.00;99.90;;;1.29;100.00;99681.25;4982157;28;129749;-74
2021/12/18 09:49:22;;;;;;;5.90;2.80;;;1.00;99.90;;;1.15;100.00;99686.13;4965104;28;129126;-75
2021/12/18 09:51:51;;;;;;;7.82;3.22;;;0.90;99.90;;;1.18;100.00;99685.63;4948279;28;121626;-74
2021/12/18 09:54:21;;;;;;;6.07;2.90;;;0.90;99.90;;;1.25;100.00;99690.84;4963834;28;121718;-76
2021/12/18 09:56:50;;;;;;;5.13;2.80;;;0.90;99.90;;;1.34;100.00;99686.69;4964311;28;130743;-75
2021/12/18 09:59:19;;;;;;;4.95;2.97;;;1.00;99.90;;;1.30;100.00;99688.22;4965642;28;128527;-74
2021/12/18 10:01:48;;;;;;;5.82;2.55;;;1.00;99.80;;;1.35;99.98;99685.63;4966211;28;118912;-75
2021/12/18 10:04:31;;;;;;;6.20;4.35;;;1.00;99.90;;;1.24;100.00;99695.34;4965591;28;119629;-74
2021/12/18 10:07:02;;;;;;;5.95;3.10;;;1.00;99.90;;;1.30;100.00;99684.75;4965666;28;129462;-75
2021/12/18 10:09:37;;;;;;;12.55;6.47;;;0.90;99.90;;;1.29;100.00;99680.44;4964140;28;129873;-75
2021/12/18 10:12:19;;;;;;;13.73;6.75;;;1.00;99.90;;;1.20;100.00;99688.06;4964072;28;119476;-75
2021/12/18 10:14:50;;;;;;;6.72;2.70;;;1.00;99.90;;;1.28;100.00;99671.63;4966747;28;119545;-76
2021/12/18 10:17:32;;;;;;;6.05;3.80;;;1.00;99.90;;;1.44;100.00;99661.94;4947545;28;128626;-74
2021/12/18 10:20:22;;;;;;;4.68;2.22;;;1.10;99.90;;;1.39;99.65;99665.38;4965702;28;129406;-74
2021/12/18 10:22:54;;;;;;;4.50;2.40;;;1.00;99.60;;;1.49;99.58;99664.69;4998756;28;118671;-75
2021/12/18 10:25:25;;;;;;;4.95;2.47;;;1.10;99.10;;;1.59;98.98;99655.97;4964452;28;119578;-75
2021/12/18 10:28:03;;;;;;;4.97;2.10;;;1.10;98.40;;;1.61;98.62;99653.88;4966448;28;130444;-76
2021/12/18 10:30:33;;;;;;;4.38;2.00;;;1.20;97.50;;;1.59;98.73;99654.13;4964193;28;129685;-75
2021/12/18 10:33:06;;;;;;;5.85;2.10;;;1.10;96.60;;;1.70;98.32;99655.06;4949402;28;118573;-74
2021/12/18 10:35:45;;;;;;;3.75;2.10;;;1.20;97.30;;;1.60;98.05;99660.28;4998602;28;120407;-74
2021/12/18 10:38:43;;;;;;;6.40;2.30;;;1.10;96.90;;;1.33;98.96;99644.94;4981812;28;129165;-75
2021/12/18 10:41:26;;;;;;;4.63;2.38;;;1.10;97.40;;;1.28;99.98;99647.56;4963350;28;129887;-75
2021/12/18 10:44:06;;;;;;;4.97;1.90;;;1.00;99.00;;;1.12;100.00;99653.75;4964634;28;122297;-75
2021/12/18 10:46:38;;;;;;;5.40;2.10;;;0.90;99.90;;;1.01;100.00;99645.59;4962183;28;121974;-76
2021/12/18 10:49:10;;;;;;;4.50;2.20;;;0.80;99.90;;;1.01;100.00;99648.25;4962945;28;129812;-74
2021/12/18 10:51:48;;;;;;;5.95;2.47;;;0.80;99.90;;;1.00;100.00;99641.28;4965046;28;129759;-75
2021/12/18 10:54:21;;;;;;;4.50;2.47;;;0.90;99.90;;;1.18;100.00;99626.03;4981213;28;118599;-74
2021/12/18 10:56:53;;;;;;;7.32;2.75;;;0.90;99.90;;;1.20;100.00;99618.56;4981643;28;118378;-74
2021/12/18 10:59:26;;;;;;;8.45;3.30;;;1.00;99.90;;;1.32;100.00;99610.44;4977926;28;130380;-74
2021/12/18 11:01:59;;;;;;;6.75;3.63;;;1.00;99.90;;;1.36;100.00;99601.66;4961885;28;129840;-75
2021/12/18 11:04:31;;;;;;;7.75;5.10;;;1.00;99.90;;;1.36;100.00;99590.97;4961564;28;119603;-74
2021/12/18 11:07:16;;;;;;;7.95;3.22;;;1.00;99.90;;;1.41;100.00;99582.22;4964877;28;118758;-74
2021/12/18 11:09:59;;;;;;;4.75;2.90;;;1.00;99.90;;;1.40;100.00;99577.91;4949944;28;129068;-74
2021/12/18 11:15:13;;;;;;;7.68;4.47;;;1.00;99.90;;;1.49;100.00;99578.28;4966189;28;119908;-74
2021/12/18 11:17:43;;;;;;;7.63;4.85;;;1.10;99.90;;;1.58;100.00;99566.09;4966585;28;119496;-76